Time;durP1;ratioP1;P1;durP2;ratioP2;P2;SDS_P1;SDS_P2;PMS_P1;PMS_P2;Temp;Humidity;BMP_temperature;BMP_pressure;BME280_temperature;BME280_humidity;BME280_pressure;Samples;Min_cycle;Max_cycle;Signal;HPM_P1;HPM_P2
2022/03/17 00:00:19;;;;;;;;;6.00;6.00;;;;;11.21;100.00;101873.94;5081576;27;45350;-82
2022/03/17 00:02:45;;;;;;;;;11.75;11.00;;;;;11.22;100.00;101881.00;5083703;27;45381;-82
2022/03/17 00:05:11;;;;;;;;;7.00;6.25;;;;;11.15;100.00;101893.75;5084021;27;45151;-81
2022/03/17 00:07:40;;;;;;;;;12.80;10.60;;;;;11.15;100.00;101880.44;5079314;28;44793;-82
2022/03/17 00:10:14;;;;;;;;;12.20;11.00;;;;;11.13;100.00;101895.63;5079141;27;45397;-82
2022/03/17 00:12:41;;;;;;;;;7.75;7.75;;;;;11.09;100.00;101882.56;5078685;27;44911;-81
2022/03/17 00:15:06;;;;;;;;;9.00;8.00;;;;;11.05;100.00;101901.31;5079293;27;45551;-82
2022/03/17 00:17:32;;;;;;;;;10.25;10.25;;;;;11.04;100.00;101898.75;5077828;27;45388;-82
2022/03/17 00:19:57;;;;;;;;;9.00;9.00;;;;;11.04;100.00;101898.75;5079210;27;44766;-82
2022/03/17 00:22:24;;;;;;;;;14.25;10.25;;;;;10.98;100.00;101907.91;5077715;28;45604;-82
2022/03/17 00:24:49;;;;;;;;;9.25;9.25;;;;;10.98;100.00;101920.34;5078811;28;45279;-82
2022/03/17 00:27:15;;;;;;;;;11.00;9.75;;;;;10.99;100.00;101909.63;5078901;28;45419;-82
2022/03/17 00:29:41;;;;;;;;;10.50;10.50;;;;;11.01;100.00;101906.88;5082890;27;45415;-82
2022/03/17 00:32:07;;;;;;;;;12.50;12.50;;;;;10.98;100.00;101915.88;5085812;28;44794;-83
2022/03/17 00:37:24;;;;;;;;;14.40;12.40;;;;;10.95;100.00;101918.69;5077225;27;44796;-82
2022/03/17 00:39:49;;;;;;;;;8.75;8.75;;;;;10.92;100.00;101923.28;5078729;27;44758;-82
2022/03/17 00:42:15;;;;;;;;;15.50;12.50;;;;;10.88;100.00;101938.53;5079289;27;44884;-79
2022/03/17 00:44:41;;;;;;;;;18.00;16.50;;;;;10.87;100.00;101951.88;5079903;27;45747;-81
2022/03/17 00:47:07;;;;;;;;;13.25;13.25;;;;;10.80;100.00;101943.34;5080949;27;44767;-80
2022/03/17 00:49:32;;;;;;;;;15.25;12.50;;;;;10.83;100.00;101940.56;5080627;27;44657;-81
2022/03/17 00:51:58;;;;;;;;;21.25;19.00;;;;;10.79;100.00;101958.44;5078716;27;44786;-81
2022/03/17 00:54:23;;;;;;;;;16.00;14.75;;;;;10.82;100.00;101960.09;5073576;27;45200;-81
2022/03/17 00:56:48;;;;;;;;;17.75;17.75;;;;;10.88;100.00;101956.25;5058787;28;45198;-81
2022/03/17 00:59:14;;;;;;;;;20.50;19.00;;;;;10.87;100.00;101962.53;5065986;28;45445;-82
2022/03/17 01:01:40;;;;;;;;;15.25;15.25;;;;;10.91;100.00;101980.06;5066181;28;45223;-81
2022/03/17 01:04:05;;;;;;;;;12.50;12.50;;;;;10.92;100.00;101972.00;5058915;28;45170;-81
2022/03/17 01:06:30;;;;;;;;;17.75;16.75;;;;;10.88;100.00;101982.84;5057822;28;45520;-82
2022/03/17 01:08:56;;;;;;;;;20.00;18.50;;;;;10.81;100.00;101990.25;5058347;28;45487;-80
2022/03/17 01:11:22;;;;;;;;;28.50;22.00;;;;;10.80;100.00;101980.56;5057398;28;44856;-81
2022/03/17 01:13:47;;;;;;;;;21.75;21.75;;;;;10.76;100.00;101993.13;5056547;28;45392;-82
2022/03/17 01:16:13;;;;;;;;;34.00;27.75;;;;;10.69;100.00;101981.09;5056927;28;44925;-80
2022/03/17 01:18:39;;;;;;;;;29.00;27.25;;;;;10.62;100.00;101994.72;5058355;27;45502;-82
2022/03/17 01:21:04;;;;;;;;;28.00;23.50;;;;;10.66;100.00;101997.16;5058002;28;44920;-80
2022/03/17 01:23:30;;;;;;;;;22.25;20.25;;;;;10.63;100.00;102012.38;5058114;28;46174;-82
2022/03/17 01:25:55;;;;;;;;;22.00;21.75;;;;;10.58;100.00;102003.78;5057181;27;44866;-82
2022/03/17 01:28:20;;;;;;;;;31.00;29.67;;;;;10.53;100.00;102001.31;5057194;28;44867;-82
2022/03/17 01:30:46;;;;;;;;;29.33;27.67;;;;;10.50;100.00;102007.66;5062504;28;45454;-81
2022/03/17 01:33:11;;;;;;;;;32.00;30.33;;;;;10.47;100.00;102010.44;5063607;28;45094;-81
2022/03/17 01:35:36;;;;;;;;;28.75;28.75;;;;;10.45;100.00;102030.94;5057350;28;45382;-81
2022/03/17 01:38:02;;;;;;;;;28.00;21.50;;;;;10.46;100.00;102029.97;5057682;27;45296;-82
2022/03/17 01:40:28;;;;;;;;;27.75;26.25;;;;;10.42;100.00;102031.06;5060014;28;44969;-81
2022/03/17 01:42:53;;;;;;;;;22.75;22.50;;;;;10.38;100.00;102037.44;5057535;28;45181;-80
2022/03/17 01:45:19;;;;;;;;;20.33;20.33;;;;;10.40;100.00;102040.91;5056350;28;44845;-81
2022/03/17 01:47:44;;;;;;;;;22.25;22.25;;;;;10.39;100.00;102033.84;5057183;28;44724;-81
2022/03/17 01:50:12;;;;;;;;;33.67;30.67;;;;;10.40;100.00;102032.06;5057339;28;44783;-81
2022/03/17 01:52:39;;;;;;;;;32.33;30.33;;;;;10.37;100.00;102027.75;5062239;27;45498;-81
2022/03/17 01:55:05;;;;;;;;;27.75;27.75;;;;;10.37;100.00;102051.66;5099627;27;45430;-81
2022/03/17 01:57:31;;;;;;;;;35.33;33.00;;;;;10.34;100.00;102046.47;5099418;27;45206;-81
2022/03/17 01:59:59;;;;;;;;;33.67;31.33;;;;;10.35;100.00;102045.56;5099670;27;44780;-81
2022/03/17 02:02:25;;;;;;;;;33.00;31.33;;;;;10.35;100.00;102042.00;5099275;27;45431;-80
2022/03/17 02:04:52;;;;;;;;;24.75;23.50;;;;;10.31;100.00;102053.72;5100261;27;45212;-82
2022/03/17 02:07:19;;;;;;;;;29.33;26.67;;;;;10.27;100.00;102027.28;5101652;27;45316;-81
2022/03/17 02:09:45;;;;;;;;;33.67;30.67;;;;;10.28;100.00;102057.38;5102624;27;45350;-80
2022/03/17 02:15:00;;;;;;;;;33.75;29.00;;;;;10.25;100.00;102078.75;5103255;27;45502;-81
2022/03/17 02:17:27;;;;;;;;;37.00;33.67;;;;;10.26;100.00;102078.69;5099845;27;44793;-82
2022/03/17 02:19:53;;;;;;;;;32.00;29.75;;;;;10.28;100.00;102070.66;5098792;27;45444;-81
2022/03/17 02:22:21;;;;;;;;;27.75;25.00;;;;;10.25;100.00;102089.38;5098345;27;45110;-80
2022/03/17 02:27:35;;;;;;;;;25.00;21.00;;;;;10.27;100.00;102091.03;5103730;27;45363;-80
2022/03/17 02:30:03;;;;;;;;;28.00;25.33;;;;;10.26;100.00;102094.63;5105517;27;44888;-81
2022/03/17 02:32:29;;;;;;;;;20.33;20.00;;;;;10.23;100.00;102108.00;5107970;27;45580;-81
2022/03/17 02:34:55;;;;;;;;;32.75;29.00;;;;;10.26;100.00;102099.09;5113706;27;44676;-81
2022/03/17 02:37:21;;;;;;;;;27.00;24.67;;;;;10.29;100.00;102091.81;5109699;27;45327;-81
2022/03/17 02:39:47;;;;;;;;;31.25;30.00;;;;;10.34;100.00;102090.75;5104916;27;45354;-82
2022/03/17 02:42:12;;;;;;;;;28.75;26.50;;;;;10.37;100.00;102088.84;5104796;27;45406;-81
2022/03/17 02:44:38;;;;;;;;;26.50;24.50;;;;;10.29;100.00;102080.34;5097923;27;45281;-81
2022/03/17 02:47:06;;;;;;;;;25.50;24.00;;;;;10.28;100.00;102079.47;5097262;27;44795;-81
2022/03/17 02:49:32;;;;;;;;;29.67;26.00;;;;;10.25;100.00;102087.59;5098100;27;44822;-84
2022/03/17 02:51:57;;;;;;;;;31.33;30.00;;;;;10.20;100.00;102117.88;5099956;27;45273;-85
2022/03/17 02:54:23;;;;;;;;;25.00;23.33;;;;;10.18;100.00;102120.63;5084198;27;44726;-85
2022/03/17 02:56:48;;;;;;;;;31.00;26.33;;;;;10.21;100.00;102119.63;5081012;27;45247;-86
2022/03/17 02:59:14;;;;;;;;;26.50;26.00;;;;;10.21;100.00;102103.69;5079080;27;44904;-85
2022/03/17 03:01:40;;;;;;;;;23.00;21.33;;;;;10.19;100.00;102100.22;5082227;27;45413;-85
2022/03/17 03:04:05;;;;;;;;;30.67;30.33;;;;;10.13;100.00;102114.66;5097132;27;44800;-82
2022/03/17 03:06:31;;;;;;;;;29.00;27.67;;;;;10.10;100.00;102120.06;5096723;27;45341;-84
2022/03/17 03:08:59;;;;;;;;;30.00;26.25;;;;;10.12;100.00;102118.22;5088833;27;45441;-84
2022/03/17 03:11:24;;;;;;;;;18.75;18.50;;;;;10.11;100.00;102120.97;5087271;28;45699;-84
2022/03/17 03:13:50;;;;;;;;;30.33;29.33;;;;;10.06;100.00;102129.13;5084048;28;45178;-85
2022/03/17 03:16:15;;;;;;;;;23.25;23.25;;;;;10.01;100.00;102136.41;5086398;28;45350;-84
2022/03/17 03:18:42;;;;;;;;;22.75;20.75;;;;;10.03;100.00;102119.47;5084468;27;44939;-84
2022/03/17 03:21:08;;;;;;;;;21.50;21.50;;;;;10.04;100.00;102130.97;5088214;27;45083;-85
2022/03/17 03:23:34;;;;;;;;;27.67;24.00;;;;;9.93;100.00;102144.69;5089080;27;44804;-85
2022/03/17 03:26:00;;;;;;;;;25.50;21.50;;;;;9.92;100.00;102156.25;5087862;27;44789;-84
2022/03/17 03:28:25;;;;;;;;;23.75;23.50;;;;;9.87;100.00;102144.97;5083179;28;45453;-84
2022/03/17 03:30:52;;;;;;;;;20.00;20.00;;;;;9.86;100.00;102143.19;5083895;28;45160;-86
2022/03/17 03:33:17;;;;;;;;;24.00;21.50;;;;;9.85;100.00;102141.47;5086685;27;45452;-84
2022/03/17 03:38:26;;;;;;;;;18.00;18.00;;;;;9.81;100.00;102150.50;5088797;28;45288;-85
2022/03/17 03:40:52;;;;;;;;;25.25;23.50;;;;;9.83;100.00;102153.97;5079630;27;45060;-84
2022/03/17 03:43:18;;;;;;;;;23.25;23.25;;;;;9.77;100.00;102165.69;5080697;27;44795;-84
2022/03/17 03:45:43;;;;;;;;;23.00;19.50;;;;;9.78;100.00;102169.22;5076302;27;44754;-85
2022/03/17 03:48:09;;;;;;;;;19.00;19.00;;;;;9.81;100.00;102158.47;5078434;28;44792;-85
2022/03/17 03:50:34;;;;;;;;;24.25;23.50;;;;;9.81;100.00;102190.31;5076850;27;45106;-85
2022/03/17 03:52:59;;;;;;;;;21.75;21.75;;;;;9.73;100.00;102190.63;5082933;28;44779;-85
2022/03/17 03:55:25;;;;;;;;;28.50;24.50;;;;;9.77;100.00;102197.56;5093487;27;45089;-83
2022/03/17 03:57:51;;;;;;;;;23.00;20.75;;;;;9.79;100.00;102184.22;5090870;27;45247;-84
2022/03/17 04:02:44;;;;;;;;;12.50;12.50;;;;;9.73;100.00;102211.00;5080414;27;44677;-86
2022/03/17 04:05:10;;;;;;;;;19.00;15.50;;;;;9.72;100.00;102212.78;5078803;27;44787;-84
2022/03/17 04:07:37;;;;;;;;;17.00;15.25;;;;;9.69;100.00;102223.53;5082950;27;44931;-85
2022/03/17 04:10:03;;;;;;;;;20.00;19.50;;;;;9.65;100.00;102216.59;5083053;28;45147;-86
2022/03/17 04:12:29;;;;;;;;;23.00;23.00;;;;;9.55;100.00;102212.59;5086355;27;44752;-85
2022/03/17 04:14:55;;;;;;;;;21.25;18.25;;;;;9.52;100.00;102218.88;5084031;27;45158;-85
2022/03/17 04:17:20;;;;;;;;;20.75;20.75;;;;;9.44;100.00;102228.06;5084772;27;44944;-86
2022/03/17 04:19:45;;;;;;;;;14.25;13.25;;;;;9.46;100.00;102223.53;5084210;27;45476;-85
2022/03/17 04:22:11;;;;;;;;;23.75;18.00;;;;;9.49;100.00;102245.53;5081804;27;45525;-83
2022/03/17 04:24:37;;;;;;;;;17.25;17.25;;;;;9.37;100.00;102240.66;5080391;27;44794;-83
2022/03/17 04:27:04;;;;;;;;;24.25;19.25;;;;;9.41;100.00;102234.31;5079509;27;45257;-83
2022/03/17 04:29:30;;;;;;;;;23.00;16.50;;;;;9.37;100.00;102243.31;5077968;27;45607;-83
2022/03/17 04:31:56;;;;;;;;;23.25;20.00;;;;;9.38;100.00;102245.06;5079065;27;45489;-83
2022/03/17 04:34:21;;;;;;;;;18.00;14.25;;;;;9.39;100.00;102254.75;5079593;27;45371;-84
2022/03/17 04:36:46;;;;;;;;;20.00;18.25;;;;;9.37;100.00;102245.09;5080121;28;45030;-82
2022/03/17 04:39:12;;;;;;;;;20.00;17.25;;;;;9.39;100.00;102259.19;5081796;27;45370;-84
2022/03/17 04:41:41;;;;;;;;;17.00;14.75;;;;;9.41;100.00;102270.59;5083731;27;44906;-84
2022/03/17 04:44:07;;;;;;;;;19.75;18.00;;;;;9.41;100.00;102268.81;5087654;28;44780;-82
2022/03/17 04:46:32;;;;;;;;;18.75;17.50;;;;;9.39;100.00;102275.09;5082280;27;45190;-83
2022/03/17 04:48:58;;;;;;;;;14.50;13.25;;;;;9.24;100.00;102272.09;5080452;27;45279;-89
2022/03/17 04:51:24;;;;;;;;;17.50;16.00;;;;;9.14;100.00;102299.00;5078615;27;45570;-81
2022/03/17 04:53:49;;;;;;;;;10.00;9.75;;;;;9.10;100.00;102284.13;5078671;27;45417;-83
2022/03/17 04:56:17;;;;;;;;;13.25;12.25;;;;;9.04;100.00;102310.84;5078629;27;44805;-82
2022/03/17 04:58:44;;;;;;;;;7.50;6.75;;;;;8.99;100.00;102303.03;5078748;27;45059;-84
2022/03/17 05:01:11;;;;;;;;;13.75;11.75;;;;;8.97;100.00;102300.47;5079029;27;45499;-83
2022/03/17 05:03:37;;;;;;;;;9.50;9.50;;;;;8.95;100.00;102306.75;5078414;27;44689;-83
2022/03/17 05:06:04;;;;;;;;;11.50;11.50;;;;;8.90;100.00;102317.50;5078575;27;44956;-83
2022/03/17 05:08:33;;;;;;;;;10.25;9.00;;;;;8.97;100.00;102315.50;5078485;27;47066;-84
2022/03/17 05:10:58;;;;;;;;;17.25;10.25;;;;;8.97;100.00;102313.72;5086084;27;45296;-83
2022/03/17 05:13:24;;;;;;;;;11.75;11.75;;;;;8.93;100.00;102319.16;5081779;27;44742;-83
2022/03/17 05:15:51;;;;;;;;;11.75;10.25;;;;;8.96;100.00;102316.44;5088604;27;45671;-82
2022/03/17 05:18:17;;;;;;;;;13.00;11.75;;;;;8.97;100.00;102318.16;5083309;27;45239;-83
2022/03/17 05:20:43;;;;;;;;;9.25;9.00;;;;;8.95;100.00;102322.66;5077335;27;45294;-85
2022/03/17 05:23:10;;;;;;;;;9.75;9.25;;;;;8.91;100.00;102315.72;5078349;27;45793;-84
2022/03/17 05:25:38;;;;;;;;;15.50;13.50;;;;;8.86;100.00;102331.78;5082208;27;44754;-82
2022/03/17 05:28:04;;;;;;;;;12.25;8.75;;;;;8.89;100.00;102326.34;5090367;27;45383;-83
2022/03/17 05:30:29;;;;;;;;;9.00;8.00;;;;;8.90;100.00;102348.44;5085552;27;44726;-84
2022/03/17 05:32:55;;;;;;;;;10.75;9.50;;;;;8.84;100.00;102338.91;5082194;27;45348;-83
2022/03/17 05:35:21;;;;;;;;;7.50;6.75;;;;;8.82;100.00;102351.34;5081360;27;45361;-83
2022/03/17 05:37:48;;;;;;;;;7.00;7.00;;;;;8.86;100.00;102352.97;5079247;27;45431;-83
2022/03/17 05:40:16;;;;;;;;;12.00;10.75;;;;;8.85;100.00;102369.81;5081033;27;45448;-83
2022/03/17 05:42:43;;;;;;;;;14.50;11.75;;;;;8.84;100.00;102378.66;5086288;27;45399;-83
2022/03/17 05:45:10;;;;;;;;;11.50;8.50;;;;;8.83;100.00;102362.81;5088778;28;45441;-83
2022/03/17 05:47:37;;;;;;;;;7.25;7.25;;;;;8.83;100.00;102368.97;5090848;27;45156;-84
2022/03/17 05:50:04;;;;;;;;;11.60;10.00;;;;;8.89;100.00;102371.41;5092129;27;44846;-84
2022/03/17 05:52:31;;;;;;;;;8.50;8.00;;;;;8.89;100.00;102381.13;5091984;27;44806;-84
2022/03/17 05:54:56;;;;;;;;;14.25;13.00;;;;;8.83;100.00;102397.25;5075354;28;44720;-84
2022/03/17 05:57:21;;;;;;;;;10.50;9.00;;;;;8.75;100.00;102386.91;5072008;27;44916;-84
2022/03/17 05:59:47;;;;;;;;;9.50;9.50;;;;;8.69;100.00;102416.25;5067724;28;44799;-85
2022/03/17 06:02:12;;;;;;;;;16.50;14.00;;;;;8.62;100.00;102409.44;5060223;28;45383;-85
2022/03/17 06:04:38;;;;;;;;;14.75;14.25;;;;;8.70;100.00;102399.44;5065036;28;44804;-83
2022/03/17 06:07:04;;;;;;;;;10.25;10.25;;;;;8.67;100.00;102415.44;5064791;28;45258;-84
2022/03/17 06:09:29;;;;;;;;;16.25;13.75;;;;;8.67;100.00;102410.16;5057641;28;44766;-85
2022/03/17 06:11:57;;;;;;;;;13.75;13.75;;;;;8.65;100.00;102417.25;5059583;28;45299;-86
2022/03/17 06:14:24;;;;;;;;;17.75;14.00;;;;;8.66;100.00;102409.28;5058847;28;44823;-85
2022/03/17 06:16:50;;;;;;;;;12.00;12.00;;;;;8.67;100.00;102431.34;5060009;28;45320;-85
2022/03/17 06:19:16;;;;;;;;;10.00;9.75;;;;;8.64;100.00;102420.81;5064094;28;44784;-85
2022/03/17 06:21:42;;;;;;;;;12.75;12.75;;;;;8.70;100.00;102433.88;5069488;28;44788;-86
2022/03/17 06:24:07;;;;;;;;;12.50;12.50;;;;;8.65;100.00;102436.66;5068315;28;44793;-85
2022/03/17 06:26:32;;;;;;;;;13.00;13.00;;;;;8.59;100.00;102443.94;5059576;28;44881;-86
2022/03/17 06:28:58;;;;;;;;;11.25;10.50;;;;;8.58;100.00;102452.81;5059219;28;44697;-85
2022/03/17 06:31:23;;;;;;;;;16.00;12.75;;;;;8.54;100.00;102456.47;5056198;28;45280;-85
2022/03/17 06:33:48;;;;;;;;;13.00;11.25;;;;;8.57;100.00;102459.91;5056527;28;44719;-85
2022/03/17 06:36:15;;;;;;;;;9.25;6.75;;;;;8.56;100.00;102449.31;5056890;28;45370;-86
2022/03/17 06:38:41;;;;;;;;;9.50;9.50;;;;;8.56;100.00;102459.94;5057298;28;45225;-86
2022/03/17 06:41:07;;;;;;;;;11.00;9.75;;;;;8.47;100.00;102488.44;5055918;28;45328;-85
2022/03/17 06:43:32;;;;;;;;;12.50;10.25;;;;;8.37;100.00;102479.06;5057158;28;44797;-85
2022/03/17 06:45:58;;;;;;;;;4.50;4.00;;;;;8.40;100.00;102483.38;5057472;28;45179;-84
2022/03/17 06:48:23;;;;;;;;;5.75;5.50;;;;;8.40;100.00;102489.53;5058089;28;44778;-86
2022/03/17 06:50:48;;;;;;;;;8.00;7.00;;;;;8.39;100.00;102492.22;5058885;28;44984;-85
2022/03/17 06:53:16;;;;;;;;;10.50;7.25;;;;;8.41;100.00;102490.41;5066881;27;45133;-85
2022/03/17 06:55:45;;;;;;;;;8.00;8.00;;;;;8.38;100.00;102501.09;5081655;27;45028;-85
2022/03/17 06:58:10;;;;;;;;;11.00;11.00;;;;;8.42;100.00;102498.31;5088750;27;44792;-84
2022/03/17 07:00:36;;;;;;;;;8.25;8.00;;;;;8.45;100.00;102502.63;5086204;27;44862;-86
2022/03/17 07:03:01;;;;;;;;;7.50;7.50;;;;;8.37;100.00;102526.72;5078849;27;45460;-85
2022/03/17 07:05:28;;;;;;;;;5.00;5.00;;;;;8.35;100.00;102509.09;5077550;27;45456;-86
2022/03/17 07:07:53;;;;;;;;;4.60;4.60;;;;;8.39;100.00;102518.72;5076979;27;45528;-84
2022/03/17 07:10:18;;;;;;;;;7.25;6.50;;;;;8.45;100.00;102521.19;5075870;28;45043;-88
2022/03/17 07:12:44;;;;;;;;;11.50;9.50;;;;;8.50;100.00;102527.19;5077092;27;45366;-87
2022/03/17 07:15:11;;;;;;;;;8.75;7.25;;;;;8.56;100.00;102540.28;5076833;28;45016;-83
2022/03/17 07:17:41;;;;;;;;;10.40;10.40;;;;;8.57;100.00;102542.03;5077684;27;45409;-86
2022/03/17 07:20:09;;;;;;;;;7.00;7.00;;;;;8.50;100.00;102533.38;5076407;28;45336;-85
2022/03/17 07:22:35;;;;;;;;;6.25;6.25;;;;;8.34;100.00;102569.13;5083315;27;45319;-86
2022/03/17 07:25:01;;;;;;;;;9.00;8.25;;;;;8.46;100.00;102559.97;5082918;27;45449;-85
2022/03/17 07:27:26;;;;;;;;;6.80;5.00;;;;;8.48;100.00;102559.03;5081953;27;44723;-88
2022/03/17 07:29:52;;;;;;;;;7.75;4.00;;;;;8.48;100.00;102556.41;5083374;27;45302;-88
2022/03/17 07:32:23;;;;;;;;;9.75;6.50;;;;;8.52;100.00;102561.63;5085095;27;44989;-85
2022/03/17 07:34:49;;;;;;;;;6.50;6.25;;;;;8.45;100.00;102561.75;5084361;27;46978;-87
2022/03/17 07:37:15;;;;;;;;;6.75;6.00;;;;;8.40;100.00;102581.34;5082790;27;45449;-86
2022/03/17 07:39:41;;;;;;;;;6.75;6.25;;;;;8.44;100.00;102599.75;5081427;27;44768;-84
2022/03/17 07:42:06;;;;;;;;;6.75;5.50;;;;;8.41;100.00;102580.44;5076975;28;44899;-85
2022/03/17 07:44:32;;;;;;;;;5.75;5.25;;;;;8.49;100.00;102581.97;5076706;27;45337;-85
2022/03/17 07:46:58;;;;;;;;;6.25;5.75;;;;;8.41;100.00;102585.72;5079632;28;45397;-86
2022/03/17 07:49:24;;;;;;;;;10.25;8.75;;;;;8.32;100.00;102586.84;5083238;27;45358;-84
2022/03/17 07:51:49;;;;;;;;;3.50;3.25;;;;;8.38;100.00;102589.34;5085447;27;44737;-84
2022/03/17 07:54:14;;;;;;;;;6.00;4.75;;;;;8.40;100.00;102589.28;5068883;27;46182;-85
2022/03/17 07:56:41;;;;;;;;;9.00;8.50;;;;;8.29;100.00;102642.53;5062947;28;44706;-85
2022/03/17 07:59:08;;;;;;;;;9.50;8.75;;;;;8.28;100.00;102597.56;5059954;28;45213;-86
2022/03/17 08:01:34;;;;;;;;;6.50;6.50;;;;;8.36;100.00;102617.63;5060230;28;44791;-87
2022/03/17 08:03:59;;;;;;;;;7.50;6.25;;;;;8.32;100.00;102610.69;5059957;28;45323;-85
2022/03/17 08:06:25;;;;;;;;;7.00;6.00;;;;;8.32;100.00;102620.41;5061413;27;44811;-87
2022/03/17 08:08:51;;;;;;;;;9.50;9.50;;;;;8.40;100.00;102603.41;5065128;28;44805;-86
2022/03/17 08:11:17;;;;;;;;;13.50;11.50;;;;;8.31;100.00;102623.94;5067111;28;44940;-87
2022/03/17 08:13:42;;;;;;;;;9.75;9.75;;;;;8.33;100.00;102625.66;5064506;28;46179;-87
2022/03/17 08:16:10;;;;;;;;;12.00;8.25;;;;;8.45;100.00;102643.00;5059738;28;44814;-86
2022/03/17 08:18:37;;;;;;;;;8.00;4.50;;;;;8.42;100.00;102635.16;5059211;28;45315;-85
2022/03/17 08:21:03;;;;;;;;;8.75;6.00;;;;;8.38;100.00;102644.97;5059048;28;44827;-86
2022/03/17 08:23:28;;;;;;;;;8.00;8.00;;;;;8.44;100.00;102646.56;5059664;28;45485;-86
2022/03/17 08:25:54;;;;;;;;;14.25;11.25;;;;;8.53;100.00;102641.03;5046233;28;44783;-86
2022/03/17 08:28:19;;;;;;;;;7.25;7.25;;;;;8.54;100.00;102649.84;5062855;28;45433;-86
2022/03/17 08:30:46;;;;;;;;;8.00;8.00;;;;;8.46;100.00;102689.75;5071885;28;45454;-86
2022/03/17 08:33:13;;;;;;;;;6.25;5.00;;;;;8.37;100.00;102664.41;5079199;27;47872;-85
2022/03/17 08:35:39;;;;;;;;;9.00;7.00;;;;;8.40;100.00;102672.25;5064818;27;44658;-86
2022/03/17 08:38:04;;;;;;;;;11.00;9.25;;;;;8.35;100.00;102666.19;5073366;27;45224;-87
2022/03/17 08:40:30;;;;;;;;;7.00;5.75;;;;;8.37;100.00;102669.72;5073338;27;45391;-85
2022/03/17 08:42:55;;;;;;;;;7.50;6.50;;;;;8.43;100.00;102666.03;5062199;28;45285;-85
2022/03/17 08:50:49;;;;;;;;;12.25;8.00;;;;;8.79;100.00;102685.31;5085206;28;44766;-86
2022/03/17 08:53:15;;;;;;;;;13.00;9.25;;;;;8.85;100.00;102698.44;5080058;27;45208;-86
2022/03/17 08:55:40;;;;;;;;;9.25;9.25;;;;;8.78;100.00;102699.50;5079323;27;45157;-85
2022/03/17 08:58:07;;;;;;;;;13.25;10.25;;;;;8.62;100.00;102703.50;5081807;27;44888;-86
2022/03/17 09:00:34;;;;;;;;;8.75;8.75;;;;;8.70;100.00;102710.31;5083385;27;44829;-87
2022/03/17 09:03:07;;;;;;;;;8.25;8.25;;;;;8.81;100.00;102720.63;5067161;28;45211;-86
2022/03/17 09:05:35;;;;;;;;;15.00;13.75;;;;;8.78;100.00;102718.03;5065775;28;44793;-86
2022/03/17 09:08:01;;;;;;;;;15.00;15.00;;;;;8.82;100.00;102724.13;5067270;28;45328;-86
2022/03/17 09:10:27;;;;;;;;;10.50;9.50;;;;;8.87;100.00;102715.13;5072539;28;44787;-84
2022/03/17 09:12:55;;;;;;;;;10.25;8.75;;;;;8.98;100.00;102721.00;5086621;27;45322;-85
2022/03/17 09:15:21;;;;;;;;;15.75;13.00;;;;;8.92;100.00;102713.22;5071953;27;45287;-86
2022/03/17 09:17:47;;;;;;;;;8.75;8.75;;;;;9.00;100.00;102732.44;5060718;28;45344;-86
2022/03/17 09:20:15;;;;;;;;;17.00;13.75;;;;;8.95;100.00;102754.69;5061975;28;45373;-85
2022/03/17 09:22:43;;;;;;;;;9.50;9.50;;;;;8.99;100.00;102728.06;5063083;28;45011;-85
2022/03/17 09:25:10;;;;;;;;;7.60;7.60;;;;;9.07;100.00;102738.44;5062983;28;44800;-85
2022/03/17 09:27:35;;;;;;;;;9.00;9.00;;;;;9.06;100.00;102736.69;5068073;28;45299;-85
2022/03/17 09:30:01;;;;;;;;;16.75;16.25;;;;;9.05;100.00;102737.63;5087850;27;45441;-88
2022/03/17 09:32:26;;;;;;;;;21.00;17.00;;;;;9.13;100.00;102738.25;5085465;27;45432;-88
2022/03/17 09:34:52;;;;;;;;;6.00;5.00;;;;;9.15;100.00;102748.84;5083745;27;45255;-91
2022/03/17 09:37:18;;;;;;;;;11.75;11.50;;;;;9.21;100.00;102746.88;5084056;27;44942;-89
2022/03/17 09:39:45;;;;;;;;;10.00;10.00;;;;;9.29;100.00;102730.75;5090934;27;44889;-85
2022/03/17 09:42:19;;;;;;;;;11.00;11.00;;;;;9.25;100.00;102755.59;5091055;27;45382;-84
2022/03/17 09:44:47;;;;;;;;;14.50;12.75;;;;;9.30;100.00;102751.03;5073464;27;44811;-83
2022/03/17 09:47:18;;;;;;;;;16.00;14.75;;;;;9.31;100.00;102768.69;5061989;28;45434;-83
2022/03/17 09:49:46;;;;;;;;;9.00;8.75;;;;;9.33;100.00;102755.38;5079847;27;45437;-84
2022/03/17 09:52:17;;;;;;;;;21.25;16.75;;;;;9.40;100.00;102751.63;5079150;27;45468;-83
2022/03/17 09:54:50;;;;;;;;;13.75;10.25;;;;;9.39;100.00;102758.72;5084261;27;45421;-83
2022/03/17 09:57:16;;;;;;;;;16.50;16.00;;;;;9.22;100.00;102768.94;5078818;27;44809;-83
2022/03/17 09:59:56;;;;;;;;;15.25;11.50;;;;;9.22;100.00;102775.13;5081130;27;45479;-83
2022/03/17 10:02:22;;;;;;;;;10.75;10.75;;;;;9.16;100.00;102779.72;5081290;27;46345;-83
2022/03/17 10:04:48;;;;;;;;;14.75;14.75;;;;;9.26;100.00;102776.78;5080283;27;44792;-83
2022/03/17 10:07:18;;;;;;;;;16.50;16.25;;;;;9.18;100.00;102778.75;5078965;27;45437;-84
2022/03/17 10:09:43;;;;;;;;;16.00;9.00;;;;;9.32;100.00;102774.84;5077926;27;44859;-83
2022/03/17 10:12:11;;;;;;;;;13.75;12.00;;;;;9.46;100.00;102793.88;5078728;27;45151;-83
2022/03/17 10:14:50;;;;;;;;;12.60;11.00;;;;;9.50;100.00;102784.94;5082409;27;45436;-84
2022/03/17 10:17:29;;;;;;;;;9.00;9.00;;;;;9.34;100.00;102791.59;5081365;27;44655;-82
2022/03/17 10:20:13;;;;;;;;;16.00;14.25;;;;;9.25;100.00;102788.31;5076605;27;44795;-83
2022/03/17 10:22:47;;;;;;;;;13.00;13.00;;;;;9.35;100.00;102788.03;5057457;28;45433;-84
2022/03/17 10:25:34;;;;;;;;;21.25;16.75;;;;;9.37;100.00;102792.38;5057710;28;44655;-84
2022/03/17 10:28:02;;;;;;;;;15.25;11.75;;;;;9.29;100.00;102798.84;5059832;28;45303;-84
2022/03/17 10:30:37;;;;;;;;;11.50;8.25;;;;;9.18;100.00;102804.41;5073868;27;45599;-85
2022/03/17 10:33:06;;;;;;;;;5.00;4.00;;;;;9.23;100.00;102802.50;5081836;27;44997;-83
2022/03/17 10:35:34;;;;;;;;;14.50;13.00;;;;;9.12;100.00;102812.53;5080398;27;45175;-84
2022/03/17 10:38:12;;;;;;;;;16.75;9.50;;;;;9.15;100.00;102817.78;5078798;27;45418;-84
2022/03/17 10:40:38;;;;;;;;;12.25;11.75;;;;;9.23;100.00;102805.16;5079276;27;45442;-84
2022/03/17 10:43:24;;;;;;;;;16.25;14.00;;;;;9.38;100.00;102798.53;5082662;27;44990;-84
2022/03/17 10:46:21;;;;;;;;;11.75;10.50;;;;;9.44;100.00;102815.16;5082505;27;44818;-83
2022/03/17 10:49:05;;;;;;;;;10.00;8.00;;;;;9.61;100.00;102816.44;5056893;28;44885;-83
2022/03/17 10:51:42;;;;;;;;;18.00;16.50;;;;;9.57;100.00;102815.66;5057195;28;44829;-84
2022/03/17 10:54:11;;;;;;;;;16.75;13.75;;;;;9.63;100.00;102820.81;5065073;28;45261;-87
2022/03/17 10:56:39;;;;;;;;;14.60;14.60;;;;;9.71;100.00;102825.88;5078440;27;45394;-84
2022/03/17 10:59:07;;;;;;;;;10.40;8.00;;;;;9.58;100.00;102833.34;5076282;27;44748;-85
2022/03/17 11:01:41;;;;;;;;;11.50;9.75;;;;;9.61;100.00;102821.75;5058762;27;45557;-85
2022/03/17 11:04:07;;;;;;;;;17.25;16.25;;;;;9.54;100.00;102829.03;5056832;28;45412;-85
2022/03/17 11:06:33;;;;;;;;;12.60;12.60;;;;;9.61;100.00;102835.03;5055146;28;45440;-85
2022/03/17 11:09:00;;;;;;;;;12.50;12.50;;;;;9.53;100.00;102833.47;5064978;27;44815;-84
2022/03/17 11:11:27;;;;;;;;;12.00;11.00;;;;;9.60;100.00;102838.59;5087693;27;44846;-84
2022/03/17 11:13:56;;;;;;;;;13.25;11.75;;;;;9.61;100.00;102849.16;5058674;27;46362;-85
2022/03/17 11:16:29;;;;;;;;;11.40;11.00;;;;;9.60;100.00;102836.81;5062228;27;45317;-85
2022/03/17 11:18:56;;;;;;;;;10.00;10.00;;;;;9.65;100.00;102847.28;5097944;27;45196;-85
2022/03/17 11:21:29;;;;;;;;;9.00;6.00;;;;;9.80;100.00;102849.50;5076290;27;44820;-84
2022/03/17 11:23:56;;;;;;;;;19.00;18.00;;;;;9.77;100.00;102847.81;5065153;27;45334;-84
2022/03/17 11:26:34;;;;;;;;;13.20;12.80;;;;;9.85;100.00;102850.22;5074407;27;45481;-86
2022/03/17 11:29:07;;;;;;;;;16.25;12.50;;;;;9.83;100.00;102844.09;5071438;28;45247;-85